sensor_id;sensor_type;location;lat;lon;timestamp;temperature;humidity
11256;HTU21D;5685;52.384;13.420;2022-07-05T00:02:47;23.30;96.20
11256;HTU21D;5685;52.384;13.420;2022-07-05T00:05:51;23.30;96.30
11256;HTU21D;5685;52.384;13.420;2022-07-05T00:08:53;23.30;96.30
11256;HTU21D;5685;52.384;13.420;2022-07-05T00:11:55;23.30;96.20
11256;HTU21D;5685;52.384;13.420;2022-07-05T00:14:58;23.20;96.10
11256;HTU21D;5685;52.384;13.420;2022-07-05T00:18:00;23.20;96.20
11256;HTU21D;5685;52.384;13.420;2022-07-05T00:21:04;23.20;96.10
11256;HTU21D;5685;52.384;13.420;2022-07-05T00:24:06;23.20;96.10
11256;HTU21D;5685;52.384;13.420;2022-07-05T00:27:08;23.20;96.10
11256;HTU21D;5685;52.384;13.420;2022-07-05T00:30:11;23.10;96.20
11256;HTU21D;5685;52.384;13.420;2022-07-05T00:33:14;23.10;96.20
11256;HTU21D;5685;52.384;13.420;2022-07-05T00:36:18;23.10;96.60
11256;HTU21D;5685;52.384;13.420;2022-07-05T00:39:20;23.00;96.20
11256;HTU21D;5685;52.384;13.420;2022-07-05T00:42:22;23.00;96.30
11256;HTU21D;5685;52.384;13.420;2022-07-05T00:45:24;23.00;96.30
11256;HTU21D;5685;52.384;13.420;2022-07-05T00:48:26;23.00;96.40
11256;HTU21D;5685;52.384;13.420;2022-07-05T00:51:44;22.90;96.50
11256;HTU21D;5685;52.384;13.420;2022-07-05T00:54:47;22.90;96.60
11256;HTU21D;5685;52.384;13.420;2022-07-05T00:57:49;22.90;96.50
11256;HTU21D;5685;52.384;13.420;2022-07-05T01:00:51;22.90;96.70
11256;HTU21D;5685;52.384;13.420;2022-07-05T01:03:54;22.80;96.50
11256;HTU21D;5685;52.384;13.420;2022-07-05T01:06:58;22.80;96.60
11256;HTU21D;5685;52.384;13.420;2022-07-05T01:10:01;22.80;96.80
11256;HTU21D;5685;52.384;13.420;2022-07-05T01:16:06;22.70;97.00
11256;HTU21D;5685;52.384;13.420;2022-07-05T01:19:10;22.70;97.20
11256;HTU21D;5685;52.384;13.420;2022-07-05T01:22:18;22.70;97.20
11256;HTU21D;5685;52.384;13.420;2022-07-05T01:25:24;22.70;97.20
11256;HTU21D;5685;52.384;13.420;2022-07-05T01:28:27;22.60;97.10
11256;HTU21D;5685;52.384;13.420;2022-07-05T01:31:30;22.60;97.20
11256;HTU21D;5685;52.384;13.420;2022-07-05T01:34:32;22.40;97.30
11256;HTU21D;5685;52.384;13.420;2022-07-05T01:37:35;22.40;97.60
11256;HTU21D;5685;52.384;13.420;2022-07-05T01:40:38;22.30;97.60
11256;HTU21D;5685;52.384;13.420;2022-07-05T01:43:41;22.40;97.80
11256;HTU21D;5685;52.384;13.420;2022-07-05T01:46:43;22.40;97.60
11256;HTU21D;5685;52.384;13.420;2022-07-05T01:49:48;22.30;97.70
11256;HTU21D;5685;52.384;13.420;2022-07-05T01:52:52;22.40;97.80
11256;HTU21D;5685;52.384;13.420;2022-07-05T01:55:57;22.30;97.90
11256;HTU21D;5685;52.384;13.420;2022-07-05T01:59:00;22.30;98.00
11256;HTU21D;5685;52.384;13.420;2022-07-05T02:02:03;22.30;98.00
11256;HTU21D;5685;52.384;13.420;2022-07-05T02:05:06;22.30;97.90
11256;HTU21D;5685;52.384;13.420;2022-07-05T02:08:08;22.30;98.00
11256;HTU21D;5685;52.384;13.420;2022-07-05T02:11:12;22.30;98.10
11256;HTU21D;5685;52.384;13.420;2022-07-05T02:14:14;22.30;98.00
11256;HTU21D;5685;52.384;13.420;2022-07-05T02:17:16;22.30;98.20
11256;HTU21D;5685;52.384;13.420;2022-07-05T02:20:18;22.30;98.10
11256;HTU21D;5685;52.384;13.420;2022-07-05T02:23:20;22.30;98.20
11256;HTU21D;5685;52.384;13.420;2022-07-05T02:26:24;22.20;98.30
11256;HTU21D;5685;52.384;13.420;2022-07-05T02:29:26;22.20;98.20
11256;HTU21D;5685;52.384;13.420;2022-07-05T02:32:28;22.20;98.30
11256;HTU21D;5685;52.384;13.420;2022-07-05T02:38:35;22.20;98.50
11256;HTU21D;5685;52.384;13.420;2022-07-05T02:41:38;22.10;98.50
11256;HTU21D;5685;52.384;13.420;2022-07-05T02:44:40;22.00;98.50
11256;HTU21D;5685;52.384;13.420;2022-07-05T02:47:42;22.00;98.80
11256;HTU21D;5685;52.384;13.420;2022-07-05T02:50:44;22.00;99.00
11256;HTU21D;5685;52.384;13.420;2022-07-05T02:53:47;22.00;99.00
11256;HTU21D;5685;52.384;13.420;2022-07-05T02:56:51;22.00;99.00
11256;HTU21D;5685;52.384;13.420;2022-07-05T02:59:53;22.10;98.90
11256;HTU21D;5685;52.384;13.420;2022-07-05T03:02:55;22.10;98.80
11256;HTU21D;5685;52.384;13.420;2022-07-05T03:05:58;22.20;98.80
11256;HTU21D;5685;52.384;13.420;2022-07-05T03:09:00;22.20;99.10
11256;HTU21D;5685;52.384;13.420;2022-07-05T03:12:04;22.20;98.70
11256;HTU21D;5685;52.384;13.420;2022-07-05T03:15:09;22.30;98.70
11256;HTU21D;5685;52.384;13.420;2022-07-05T03:18:11;22.30;98.60
11256;HTU21D;5685;52.384;13.420;2022-07-05T03:21:13;22.30;98.60
11256;HTU21D;5685;52.384;13.420;2022-07-05T03:24:15;22.30;98.60
11256;HTU21D;5685;52.384;13.420;2022-07-05T03:27:19;22.40;98.60
11256;HTU21D;5685;52.384;13.420;2022-07-05T03:30:21;22.40;98.60
11256;HTU21D;5685;52.384;13.420;2022-07-05T03:33:24;22.40;98.60
11256;HTU21D;5685;52.384;13.420;2022-07-05T03:36:27;22.40;98.60
11256;HTU21D;5685;52.384;13.420;2022-07-05T03:39:29;22.40;98.50
11256;HTU21D;5685;52.384;13.420;2022-07-05T03:42:32;22.40;98.50
11256;HTU21D;5685;52.384;13.420;2022-07-05T03:45:35;22.50;98.40
11256;HTU21D;5685;52.384;13.420;2022-07-05T03:48:37;22.50;98.30
11256;HTU21D;5685;52.384;13.420;2022-07-05T03:51:40;22.50;98.30
11256;HTU21D;5685;52.384;13.420;2022-07-05T03:54:42;22.50;98.30
11256;HTU21D;5685;52.384;13.420;2022-07-05T03:57:47;22.50;98.20
11256;HTU21D;5685;52.384;13.420;2022-07-05T04:00:49;22.50;98.10
11256;HTU21D;5685;52.384;13.420;2022-07-05T04:03:52;22.50;98.10
11256;HTU21D;5685;52.384;13.420;2022-07-05T04:06:54;22.60;98.20
11256;HTU21D;5685;52.384;13.420;2022-07-05T04:09:56;22.60;98.10
11256;HTU21D;5685;52.384;13.420;2022-07-05T04:13:00;22.60;98.20
11256;HTU21D;5685;52.384;13.420;2022-07-05T04:16:02;22.60;98.10
11256;HTU21D;5685;52.384;13.420;2022-07-05T04:19:04;22.60;98.10
11256;HTU21D;5685;52.384;13.420;2022-07-05T04:22:07;22.60;98.10
11256;HTU21D;5685;52.384;13.420;2022-07-05T04:25:09;22.60;98.10
11256;HTU21D;5685;52.384;13.420;2022-07-05T04:28:19;22.60;98.10
11256;HTU21D;5685;52.384;13.420;2022-07-05T04:31:21;22.60;98.10
11256;HTU21D;5685;52.384;13.420;2022-07-05T04:34:24;22.60;98.10
11256;HTU21D;5685;52.384;13.420;2022-07-05T04:37:26;22.60;98.10
11256;HTU21D;5685;52.384;13.420;2022-07-05T04:40:29;22.70;98.10
11256;HTU21D;5685;52.384;13.420;2022-07-05T04:43:32;22.70;98.10
11256;HTU21D;5685;52.384;13.420;2022-07-05T04:46:34;22.70;98.10
11256;HTU21D;5685;52.384;13.420;2022-07-05T04:49:37;22.60;98.10
11256;HTU21D;5685;52.384;13.420;2022-07-05T04:52:39;22.70;98.10
11256;HTU21D;5685;52.384;13.420;2022-07-05T04:55:41;22.70;98.10
11256;HTU21D;5685;52.384;13.420;2022-07-05T04:58:45;22.70;98.20
11256;HTU21D;5685;52.384;13.420;2022-07-05T05:01:47;22.70;98.10
11256;HTU21D;5685;52.384;13.420;2022-07-05T05:04:50;22.70;98.20
11256;HTU21D;5685;52.384;13.420;2022-07-05T05:07:53;22.70;98.20
11256;HTU21D;5685;52.384;13.420;2022-07-05T05:10:55;22.70;98.20
11256;HTU21D;5685;52.384;13.420;2022-07-05T05:13:58;22.70;98.30
11256;HTU21D;5685;52.384;13.420;2022-07-05T05:17:00;22.70;98.30
11256;HTU21D;5685;52.384;13.420;2022-07-05T05:20:05;22.70;98.20
11256;HTU21D;5685;52.384;13.420;2022-07-05T05:23:08;22.70;98.30
11256;HTU21D;5685;52.384;13.420;2022-07-05T05:26:10;22.70;98.30
11256;HTU21D;5685;52.384;13.420;2022-07-05T05:29:14;22.70;98.20
11256;HTU21D;5685;52.384;13.420;2022-07-05T05:32:16;22.70;98.30
11256;HTU21D;5685;52.384;13.420;2022-07-05T05:35:19;22.70;98.30
11256;HTU21D;5685;52.384;13.420;2022-07-05T05:38:24;22.70;98.30
11256;HTU21D;5685;52.384;13.420;2022-07-05T05:41:26;22.80;98.30
11256;HTU21D;5685;52.384;13.420;2022-07-05T05:44:29;22.70;98.30
11256;HTU21D;5685;52.384;13.420;2022-07-05T05:47:31;22.70;98.40
11256;HTU21D;5685;52.384;13.420;2022-07-05T05:50:35;22.80;98.40
11256;HTU21D;5685;52.384;13.420;2022-07-05T05:53:39;22.80;98.40
11256;HTU21D;5685;52.384;13.420;2022-07-05T05:56:41;22.80;98.40
11256;HTU21D;5685;52.384;13.420;2022-07-05T05:59:45;22.80;98.40
11256;HTU21D;5685;52.384;13.420;2022-07-05T06:02:48;22.80;98.50
11256;HTU21D;5685;52.384;13.420;2022-07-05T06:05:52;22.80;98.50
11256;HTU21D;5685;52.384;13.420;2022-07-05T06:08:54;22.80;98.50
11256;HTU21D;5685;52.384;13.420;2022-07-05T06:11:56;22.80;98.50
11256;HTU21D;5685;52.384;13.420;2022-07-05T06:15:00;22.80;98.50
11256;HTU21D;5685;52.384;13.420;2022-07-05T06:18:02;22.80;98.50
11256;HTU21D;5685;52.384;13.420;2022-07-05T06:21:05;22.80;98.50
11256;HTU21D;5685;52.384;13.420;2022-07-05T06:24:07;22.80;98.60
11256;HTU21D;5685;52.384;13.420;2022-07-05T06:27:09;22.80;98.60
11256;HTU21D;5685;52.384;13.420;2022-07-05T06:30:15;22.80;98.60
11256;HTU21D;5685;52.384;13.420;2022-07-05T06:33:20;22.80;98.70
11256;HTU21D;5685;52.384;13.420;2022-07-05T06:36:22;22.80;98.70
11256;HTU21D;5685;52.384;13.420;2022-07-05T06:39:24;22.80;98.70
11256;HTU21D;5685;52.384;13.420;2022-07-05T06:42:26;22.80;98.80
11256;HTU21D;5685;52.384;13.420;2022-07-05T06:45:30;22.80;98.80
11256;HTU21D;5685;52.384;13.420;2022-07-05T06:48:33;22.80;98.80
11256;HTU21D;5685;52.384;13.420;2022-07-05T06:51:35;22.90;98.80
11256;HTU21D;5685;52.384;13.420;2022-07-05T06:54:38;22.80;98.80
11256;HTU21D;5685;52.384;13.420;2022-07-05T06:57:40;22.80;98.80
11256;HTU21D;5685;52.384;13.420;2022-07-05T07:00:45;22.80;98.90
11256;HTU21D;5685;52.384;13.420;2022-07-05T07:03:47;22.90;98.90
11256;HTU21D;5685;52.384;13.420;2022-07-05T07:06:49;22.90;99.00
11256;HTU21D;5685;52.384;13.420;2022-07-05T07:09:51;22.90;99.00
11256;HTU21D;5685;52.384;13.420;2022-07-05T07:12:52;22.90;99.00
11256;HTU21D;5685;52.384;13.420;2022-07-05T07:15:56;22.90;99.00
11256;HTU21D;5685;52.384;13.420;2022-07-05T07:18:58;22.90;99.10
11256;HTU21D;5685;52.384;13.420;2022-07-05T07:22:00;22.90;99.10
11256;HTU21D;5685;52.384;13.420;2022-07-05T07:25:03;22.90;99.10
11256;HTU21D;5685;52.384;13.420;2022-07-05T07:28:08;22.90;99.10
11256;HTU21D;5685;52.384;13.420;2022-07-05T07:31:12;22.90;99.10
11256;HTU21D;5685;52.384;13.420;2022-07-05T07:34:14;22.90;99.10
11256;HTU21D;5685;52.384;13.420;2022-07-05T07:37:17;22.90;99.10
11256;HTU21D;5685;52.384;13.420;2022-07-05T07:40:19;22.90;98.80
11256;HTU21D;5685;52.384;13.420;2022-07-05T07:43:21;22.90;98.90
11256;HTU21D;5685;52.384;13.420;2022-07-05T07:46:25;22.70;99.00
11256;HTU21D;5685;52.384;13.420;2022-07-05T07:49:28;22.70;99.10
11256;HTU21D;5685;52.384;13.420;2022-07-05T07:52:30;22.70;99.20
11256;HTU21D;5685;52.384;13.420;2022-07-05T07:55:34;22.70;99.30
11256;HTU21D;5685;52.384;13.420;2022-07-05T07:58:36;22.70;99.40
11256;HTU21D;5685;52.384;13.420;2022-07-05T08:01:39;22.70;99.40
11256;HTU21D;5685;52.384;13.420;2022-07-05T08:04:42;22.60;99.40
11256;HTU21D;5685;52.384;13.420;2022-07-05T08:07:44;22.60;99.60
11256;HTU21D;5685;52.384;13.420;2022-07-05T08:10:46;22.70;99.60
11256;HTU21D;5685;52.384;13.420;2022-07-05T08:13:49;22.70;99.80
11256;HTU21D;5685;52.384;13.420;2022-07-05T08:16:52;22.70;99.70
11256;HTU21D;5685;52.384;13.420;2022-07-05T08:19:54;22.70;99.90
11256;HTU21D;5685;52.384;13.420;2022-07-05T08:23:14;22.70;99.70
11256;HTU21D;5685;52.384;13.420;2022-07-05T08:26:16;22.70;99.70
11256;HTU21D;5685;52.384;13.420;2022-07-05T08:29:18;22.70;99.60
11256;HTU21D;5685;52.384;13.420;2022-07-05T08:32:22;22.70;99.30
11256;HTU21D;5685;52.384;13.420;2022-07-05T08:35:24;22.80;99.20
11256;HTU21D;5685;52.384;13.420;2022-07-05T08:38:27;22.70;99.10
11256;HTU21D;5685;52.384;13.420;2022-07-05T08:41:29;22.70;99.50
11256;HTU21D;5685;52.384;13.420;2022-07-05T08:44:35;22.80;99.00
11256;HTU21D;5685;52.384;13.420;2022-07-05T08:47:42;22.70;99.10
11256;HTU21D;5685;52.384;13.420;2022-07-05T08:50:46;22.80;99.10
11256;HTU21D;5685;52.384;13.420;2022-07-05T08:53:52;22.70;99.10
11256;HTU21D;5685;52.384;13.420;2022-07-05T08:56:56;22.80;99.20
11256;HTU21D;5685;52.384;13.420;2022-07-05T08:59:58;22.80;99.10
11256;HTU21D;5685;52.384;13.420;2022-07-05T09:03:01;22.80;99.20
11256;HTU21D;5685;52.384;13.420;2022-07-05T09:06:06;22.80;99.20
11256;HTU21D;5685;52.384;13.420;2022-07-05T09:09:09;22.80;99.20
11256;HTU21D;5685;52.384;13.420;2022-07-05T09:12:12;22.80;99.30
11256;HTU21D;5685;52.384;13.420;2022-07-05T09:15:15;22.90;99.40
11256;HTU21D;5685;52.384;13.420;2022-07-05T09:18:39;22.90;99.40
11256;HTU21D;5685;52.384;13.420;2022-07-05T09:21:45;22.90;99.40
11256;HTU21D;5685;52.384;13.420;2022-07-05T09:24:47;22.90;99.40
11256;HTU21D;5685;52.384;13.420;2022-07-05T09:27:51;22.90;99.30
11256;HTU21D;5685;52.384;13.420;2022-07-05T09:30:54;22.90;99.70
11256;HTU21D;5685;52.384;13.420;2022-07-05T09:34:08;22.90;99.40
11256;HTU21D;5685;52.384;13.420;2022-07-05T09:37:11;22.90;99.40
11256;HTU21D;5685;52.384;13.420;2022-07-05T09:40:13;22.90;99.50
11256;HTU21D;5685;52.384;13.420;2022-07-05T09:43:16;22.90;99.50
11256;HTU21D;5685;52.384;13.420;2022-07-05T09:46:29;22.90;99.60
11256;HTU21D;5685;52.384;13.420;2022-07-05T09:49:33;22.90;99.90
11256;HTU21D;5685;52.384;13.420;2022-07-05T09:52:37;22.90;99.60
11256;HTU21D;5685;52.384;13.420;2022-07-05T09:55:40;23.00;99.60
11256;HTU21D;5685;52.384;13.420;2022-07-05T09:58:42;23.00;98.70
11256;HTU21D;5685;52.384;13.420;2022-07-05T10:01:44;22.90;98.30
11256;HTU21D;5685;52.384;13.420;2022-07-05T10:04:48;22.90;98.70
11256;HTU21D;5685;52.384;13.420;2022-07-05T10:08:10;23.00;97.80
11256;HTU21D;5685;52.384;13.420;2022-07-05T10:11:15;23.00;97.90
11256;HTU21D;5685;52.384;13.420;2022-07-05T10:14:20;23.00;98.20
11256;HTU21D;5685;52.384;13.420;2022-07-05T10:17:23;23.00;98.10
11256;HTU21D;5685;52.384;13.420;2022-07-05T10:20:33;22.90;98.00
11256;HTU21D;5685;52.384;13.420;2022-07-05T10:23:36;23.00;97.90
11256;HTU21D;5685;52.384;13.420;2022-07-05T10:26:39;23.00;98.10
11256;HTU21D;5685;52.384;13.420;2022-07-05T10:29:42;23.00;97.90
11256;HTU21D;5685;52.384;13.420;2022-07-05T10:32:45;23.00;98.10
11256;HTU21D;5685;52.384;13.420;2022-07-05T10:35:49;23.00;97.60
11256;HTU21D;5685;52.384;13.420;2022-07-05T10:38:52;23.00;96.80
11256;HTU21D;5685;52.384;13.420;2022-07-05T10:41:56;23.00;97.00
11256;HTU21D;5685;52.384;13.420;2022-07-05T10:44:59;23.00;97.40
11256;HTU21D;5685;52.384;13.420;2022-07-05T10:48:12;23.00;97.60
11256;HTU21D;5685;52.384;13.420;2022-07-05T10:51:17;23.00;97.10
11256;HTU21D;5685;52.384;13.420;2022-07-05T10:54:19;23.00;97.30
11256;HTU21D;5685;52.384;13.420;2022-07-05T10:57:22;23.00;97.40
11256;HTU21D;5685;52.384;13.420;2022-07-05T11:00:25;23.10;97.20
11256;HTU21D;5685;52.384;13.420;2022-07-05T11:03:33;23.10;97.30
11256;HTU21D;5685;52.384;13.420;2022-07-05T11:06:42;23.10;97.30
11256;HTU21D;5685;52.384;13.420;2022-07-05T11:09:59;23.10;97.10
11256;HTU21D;5685;52.384;13.420;2022-07-05T11:13:36;23.10;96.90
11256;HTU21D;5685;52.384;13.420;2022-07-05T11:16:38;23.10;97.10
11256;HTU21D;5685;52.384;13.420;2022-07-05T11:20:04;23.10;97.00
11256;HTU21D;5685;52.384;13.420;2022-07-05T11:23:12;23.10;97.10
11256;HTU21D;5685;52.384;13.420;2022-07-05T11:26:17;23.10;97.10
11256;HTU21D;5685;52.384;13.420;2022-07-05T11:29:40;23.20;97.10
11256;HTU21D;5685;52.384;13.420;2022-07-05T11:32:44;23.20;96.90
11256;HTU21D;5685;52.384;13.420;2022-07-05T11:35:46;23.20;96.80
11256;HTU21D;5685;52.384;13.420;2022-07-05T11:39:13;23.20;97.00
11256;HTU21D;5685;52.384;13.420;2022-07-05T11:42:19;23.20;96.60
11256;HTU21D;5685;52.384;13.420;2022-07-05T11:45:22;23.30;96.70
11256;HTU21D;5685;52.384;13.420;2022-07-05T11:48:26;23.20;96.40
11256;HTU21D;5685;52.384;13.420;2022-07-05T11:51:29;23.20;96.50
11256;HTU21D;5685;52.384;13.420;2022-07-05T11:54:33;23.20;96.40
11256;HTU21D;5685;52.384;13.420;2022-07-05T11:57:36;23.30;96.20
11256;HTU21D;5685;52.384;13.420;2022-07-05T12:00:38;23.30;95.70
11256;HTU21D;5685;52.384;13.420;2022-07-05T12:03:52;23.30;95.90
11256;HTU21D;5685;52.384;13.420;2022-07-05T12:06:56;23.30;96.10
11256;HTU21D;5685;52.384;13.420;2022-07-05T12:10:02;23.40;95.50
11256;HTU21D;5685;52.384;13.420;2022-07-05T12:13:22;23.40;95.80
11256;HTU21D;5685;52.384;13.420;2022-07-05T12:16:25;23.40;96.20
11256;HTU21D;5685;52.384;13.420;2022-07-05T12:19:27;23.40;96.40
11256;HTU21D;5685;52.384;13.420;2022-07-05T12:22:30;23.40;96.30
11256;HTU21D;5685;52.384;13.420;2022-07-05T12:25:35;23.30;96.40
11256;HTU21D;5685;52.384;13.420;2022-07-05T12:28:38;23.30;96.50
11256;HTU21D;5685;52.384;13.420;2022-07-05T12:31:58;23.40;96.60
11256;HTU21D;5685;52.384;13.420;2022-07-05T12:35:01;23.40;96.50
11256;HTU21D;5685;52.384;13.420;2022-07-05T12:38:05;23.40;96.50
11256;HTU21D;5685;52.384;13.420;2022-07-05T12:41:10;23.40;96.30
11256;HTU21D;5685;52.384;13.420;2022-07-05T12:44:18;23.40;96.50
11256;HTU21D;5685;52.384;13.420;2022-07-05T12:47:22;23.50;96.50
11256;HTU21D;5685;52.384;13.420;2022-07-05T12:50:25;23.50;96.30
11256;HTU21D;5685;52.384;13.420;2022-07-05T12:53:30;23.40;96.10
11256;HTU21D;5685;52.384;13.420;2022-07-05T12:56:51;23.40;96.30
11256;HTU21D;5685;52.384;13.420;2022-07-05T13:00:16;23.50;96.40
11256;HTU21D;5685;52.384;13.420;2022-07-05T13:03:18;23.50;96.20
11256;HTU21D;5685;52.384;13.420;2022-07-05T13:06:20;23.50;95.60
11256;HTU21D;5685;52.384;13.420;2022-07-05T13:09:33;23.50;95.80
11256;HTU21D;5685;52.384;13.420;2022-07-05T13:12:37;23.50;95.70
11256;HTU21D;5685;52.384;13.420;2022-07-05T13:15:39;23.50;95.30
11256;HTU21D;5685;52.384;13.420;2022-07-05T13:18:42;23.50;95.30
11256;HTU21D;5685;52.384;13.420;2022-07-05T13:21:44;23.60;95.30
11256;HTU21D;5685;52.384;13.420;2022-07-05T13:24:46;23.50;95.20
11256;HTU21D;5685;52.384;13.420;2022-07-05T13:27:49;23.50;95.30
11256;HTU21D;5685;52.384;13.420;2022-07-05T13:30:53;23.50;95.50
11256;HTU21D;5685;52.384;13.420;2022-07-05T13:33:56;23.50;95.80
11256;HTU21D;5685;52.384;13.420;2022-07-05T13:36:59;23.60;95.80
11256;HTU21D;5685;52.384;13.420;2022-07-05T13:40:02;23.60;95.90
11256;HTU21D;5685;52.384;13.420;2022-07-05T13:43:06;23.60;96.00
11256;HTU21D;5685;52.384;13.420;2022-07-05T13:46:08;23.60;96.00
11256;HTU21D;5685;52.384;13.420;2022-07-05T13:49:10;23.60;96.10
11256;HTU21D;5685;52.384;13.420;2022-07-05T13:52:12;23.60;96.10
11256;HTU21D;5685;52.384;13.420;2022-07-05T13:55:15;23.60;95.90
11256;HTU21D;5685;52.384;13.420;2022-07-05T13:58:18;23.60;95.50
11256;HTU21D;5685;52.384;13.420;2022-07-05T14:01:21;23.60;95.70
11256;HTU21D;5685;52.384;13.420;2022-07-05T14:04:27;23.60;95.80
11256;HTU21D;5685;52.384;13.420;2022-07-05T14:07:30;23.60;95.70
11256;HTU21D;5685;52.384;13.420;2022-07-05T14:10:32;23.70;95.80
11256;HTU21D;5685;52.384;13.420;2022-07-05T14:13:36;23.60;95.80
11256;HTU21D;5685;52.384;13.420;2022-07-05T14:16:38;23.60;95.40
11256;HTU21D;5685;52.384;13.420;2022-07-05T14:19:40;23.70;95.60
11256;HTU21D;5685;52.384;13.420;2022-07-05T14:22:43;23.70;95.20
11256;HTU21D;5685;52.384;13.420;2022-07-05T14:25:45;23.70;94.90
11256;HTU21D;5685;52.384;13.420;2022-07-05T14:28:49;23.70;95.30
11256;HTU21D;5685;52.384;13.420;2022-07-05T14:31:51;23.70;95.40
11256;HTU21D;5685;52.384;13.420;2022-07-05T14:34:53;23.70;95.50
11256;HTU21D;5685;52.384;13.420;2022-07-05T14:37:55;23.70;95.30
11256;HTU21D;5685;52.384;13.420;2022-07-05T14:40:58;23.70;95.40
11256;HTU21D;5685;52.384;13.420;2022-07-05T14:44:02;23.80;95.40
11256;HTU21D;5685;52.384;13.420;2022-07-05T14:50:16;23.80;95.00
11256;HTU21D;5685;52.384;13.420;2022-07-05T14:53:18;23.80;95.10
11256;HTU21D;5685;52.384;13.420;2022-07-05T14:56:20;23.80;95.20
11256;HTU21D;5685;52.384;13.420;2022-07-05T14:59:23;23.80;95.00
11256;HTU21D;5685;52.384;13.420;2022-07-05T15:02:25;23.80;95.20
11256;HTU21D;5685;52.384;13.420;2022-07-05T15:05:27;23.80;95.40
11256;HTU21D;5685;52.384;13.420;2022-07-05T15:08:31;23.80;95.40
11256;HTU21D;5685;52.384;13.420;2022-07-05T15:11:33;23.80;95.40
11256;HTU21D;5685;52.384;13.420;2022-07-05T15:14:37;23.80;95.50
11256;HTU21D;5685;52.384;13.420;2022-07-05T15:17:39;23.80;95.50
11256;HTU21D;5685;52.384;13.420;2022-07-05T15:20:41;23.80;95.60
11256;HTU21D;5685;52.384;13.420;2022-07-05T15:23:43;23.80;95.50
11256;HTU21D;5685;52.384;13.420;2022-07-05T15:26:45;23.80;95.60
11256;HTU21D;5685;52.384;13.420;2022-07-05T15:29:49;23.80;95.60
11256;HTU21D;5685;52.384;13.420;2022-07-05T15:32:51;23.80;95.30
11256;HTU21D;5685;52.384;13.420;2022-07-05T15:35:53;23.80;95.30
11256;HTU21D;5685;52.384;13.420;2022-07-05T15:38:58;23.80;95.50
11256;HTU21D;5685;52.384;13.420;2022-07-05T15:42:02;23.80;95.50
11256;HTU21D;5685;52.384;13.420;2022-07-05T15:45:08;23.80;95.30
11256;HTU21D;5685;52.384;13.420;2022-07-05T15:48:11;23.90;95.30
11256;HTU21D;5685;52.384;13.420;2022-07-05T15:51:13;23.90;95.40
11256;HTU21D;5685;52.384;13.420;2022-07-05T15:54:16;23.90;95.10
11256;HTU21D;5685;52.384;13.420;2022-07-05T15:57:19;23.90;95.10
11256;HTU21D;5685;52.384;13.420;2022-07-05T16:00:24;23.90;95.20
11256;HTU21D;5685;52.384;13.420;2022-07-05T16:03:27;23.90;95.20
11256;HTU21D;5685;52.384;13.420;2022-07-05T16:06:29;23.90;95.20
11256;HTU21D;5685;52.384;13.420;2022-07-05T16:09:31;23.90;95.20
11256;HTU21D;5685;52.384;13.420;2022-07-05T16:12:34;23.90;94.50
11256;HTU21D;5685;52.384;13.420;2022-07-05T16:15:38;24.00;94.40
11256;HTU21D;5685;52.384;13.420;2022-07-05T16:18:57;24.00;94.60
11256;HTU21D;5685;52.384;13.420;2022-07-05T16:22:00;24.00;94.80
11256;HTU21D;5685;52.384;13.420;2022-07-05T16:25:03;23.90;94.90
11256;HTU21D;5685;52.384;13.420;2022-07-05T16:28:06;24.00;95.10
11256;HTU21D;5685;52.384;13.420;2022-07-05T16:31:11;23.90;94.80
11256;HTU21D;5685;52.384;13.420;2022-07-05T16:34:15;24.00;94.20
11256;HTU21D;5685;52.384;13.420;2022-07-05T16:37:17;24.00;93.90
11256;HTU21D;5685;52.384;13.420;2022-07-05T16:40:19;24.00;93.80
11256;HTU21D;5685;52.384;13.420;2022-07-05T16:43:22;24.00;94.00
11256;HTU21D;5685;52.384;13.420;2022-07-05T16:46:25;24.00;94.30
11256;HTU21D;5685;52.384;13.420;2022-07-05T16:49:27;24.00;94.30
11256;HTU21D;5685;52.384;13.420;2022-07-05T16:52:29;24.00;94.10
11256;HTU21D;5685;52.384;13.420;2022-07-05T16:55:32;24.00;94.00
11256;HTU21D;5685;52.384;13.420;2022-07-05T16:58:34;24.00;94.00
11256;HTU21D;5685;52.384;13.420;2022-07-05T17:01:40;24.00;93.70
11256;HTU21D;5685;52.384;13.420;2022-07-05T17:04:42;24.00;93.30
11256;HTU21D;5685;52.384;13.420;2022-07-05T17:07:44;24.00;93.40
11256;HTU21D;5685;52.384;13.420;2022-07-05T17:10:46;24.00;93.60
11256;HTU21D;5685;52.384;13.420;2022-07-05T17:13:50;24.00;93.70
11256;HTU21D;5685;52.384;13.420;2022-07-05T17:16:54;24.00;93.60
11256;HTU21D;5685;52.384;13.420;2022-07-05T17:19:57;24.00;93.80
11256;HTU21D;5685;52.384;13.420;2022-07-05T17:22:59;24.00;93.90
11256;HTU21D;5685;52.384;13.420;2022-07-05T17:26:01;24.00;93.70
11256;HTU21D;5685;52.384;13.420;2022-07-05T17:29:04;24.00;93.20
11256;HTU21D;5685;52.384;13.420;2022-07-05T17:32:08;24.00;93.10
11256;HTU21D;5685;52.384;13.420;2022-07-05T17:35:10;24.00;93.10
11256;HTU21D;5685;52.384;13.420;2022-07-05T17:38:12;24.00;93.40
11256;HTU21D;5685;52.384;13.420;2022-07-05T17:41:15;24.00;93.20
11256;HTU21D;5685;52.384;13.420;2022-07-05T17:44:17;24.00;92.80
11256;HTU21D;5685;52.384;13.420;2022-07-05T17:47:21;24.00;92.80
11256;HTU21D;5685;52.384;13.420;2022-07-05T17:50:23;24.00;93.10
11256;HTU21D;5685;52.384;13.420;2022-07-05T17:53:26;24.00;93.40
11256;HTU21D;5685;52.384;13.420;2022-07-05T17:56:28;24.00;93.40
11256;HTU21D;5685;52.384;13.420;2022-07-05T17:59:30;24.00;93.50
11256;HTU21D;5685;52.384;13.420;2022-07-05T18:02:34;24.00;93.00
11256;HTU21D;5685;52.384;13.420;2022-07-05T18:05:36;24.00;92.60
11256;HTU21D;5685;52.384;13.420;2022-07-05T18:08:38;24.00;92.40
11256;HTU21D;5685;52.384;13.420;2022-07-05T18:11:41;24.00;92.30
11256;HTU21D;5685;52.384;13.420;2022-07-05T18:14:43;24.00;92.00
11256;HTU21D;5685;52.384;13.420;2022-07-05T18:17:47;24.00;92.10
11256;HTU21D;5685;52.384;13.420;2022-07-05T18:20:49;24.00;92.40
11256;HTU21D;5685;52.384;13.420;2022-07-05T18:23:52;24.00;92.60
11256;HTU21D;5685;52.384;13.420;2022-07-05T18:26:54;24.00;92.20
11256;HTU21D;5685;52.384;13.420;2022-07-05T18:29:56;24.00;92.20
11256;HTU21D;5685;52.384;13.420;2022-07-05T18:33:00;24.00;92.20
11256;HTU21D;5685;52.384;13.420;2022-07-05T18:36:03;24.00;92.10
11256;HTU21D;5685;52.384;13.420;2022-07-05T18:39:05;24.00;91.80
11256;HTU21D;5685;52.384;13.420;2022-07-05T18:42:08;24.00;91.50
11256;HTU21D;5685;52.384;13.420;2022-07-05T18:45:10;24.00;91.70
11256;HTU21D;5685;52.384;13.420;2022-07-05T18:48:14;24.00;91.50
11256;HTU21D;5685;52.384;13.420;2022-07-05T18:51:16;24.00;91.30
11256;HTU21D;5685;52.384;13.420;2022-07-05T18:54:19;24.00;91.10
11256;HTU21D;5685;52.384;13.420;2022-07-05T18:57:21;23.90;91.30
11256;HTU21D;5685;52.384;13.420;2022-07-05T19:00:23;24.00;91.30
11256;HTU21D;5685;52.384;13.420;2022-07-05T19:03:27;24.00;91.20
11256;HTU21D;5685;52.384;13.420;2022-07-05T19:06:29;23.90;91.00
11256;HTU21D;5685;52.384;13.420;2022-07-05T19:09:49;23.90;91.00
11256;HTU21D;5685;52.384;13.420;2022-07-05T19:13:09;23.90;91.20